createdAt,value
2018-09-30T00:00:01.523Z,99.99
2018-09-30T00:01:01.499Z,99.99
2018-09-30T00:02:01.473Z,99.99
2018-09-30T00:03:01.450Z,99.99
2018-09-30T00:04:01.427Z,99.99
2018-09-30T00:05:01.405Z,99.99
2018-09-30T00:06:01.382Z,99.99
2018-09-30T00:07:01.357Z,99.99
2018-09-30T00:08:01.332Z,99.99
2018-09-30T00:09:01.316Z,99.99
2018-09-30T00:10:01.288Z,99.99
2018-09-30T00:11:01.265Z,99.99
2018-09-30T00:12:01.241Z,99.99
2018-09-30T00:13:01.220Z,99.99
2018-09-30T00:14:01.194Z,99.99
2018-09-30T00:15:01.169Z,99.99
2018-09-30T00:16:01.143Z,99.99
2018-09-30T00:17:01.128Z,99.99
2018-09-30T00:18:01.096Z,99.99
2018-09-30T00:19:01.079Z,99.99
2018-09-30T00:20:01.051Z,99.99
2018-09-30T00:21:01.025Z,99.99
2018-09-30T00:22:01.009Z,99.99
2018-09-30T00:23:00.978Z,99.99
2018-09-30T00:24:00.955Z,99.99
2018-09-30T00:25:00.935Z,99.99
2018-09-30T00:26:00.910Z,99.99
2018-09-30T00:27:00.884Z,99.99
2018-09-30T00:28:00.868Z,99.99
2018-09-30T00:29:00.837Z,99.99
2018-09-30T00:30:00.814Z,99.99
2018-09-30T00:31:00.793Z,99.99
2018-09-30T00:32:00.772Z,99.99
2018-09-30T00:33:00.752Z,99.99
2018-09-30T00:34:00.719Z,99.99
2018-09-30T00:35:00.694Z,99.99
2018-09-30T00:36:00.672Z,99.99
2018-09-30T00:37:00.655Z,99.99
2018-09-30T00:38:00.626Z,99.99
2018-09-30T00:39:00.607Z,99.99
2018-09-30T00:40:00.584Z,99.99
2018-09-30T00:41:00.554Z,99.99
2018-09-30T00:42:00.531Z,99.99
2018-09-30T00:43:00.505Z,99.99
2018-09-30T00:44:00.482Z,99.99
2018-09-30T00:45:00.461Z,99.99
2018-09-30T00:46:00.435Z,99.99
2018-09-30T00:47:00.413Z,99.99
2018-09-30T00:48:00.393Z,99.99
2018-09-30T00:49:00.371Z,99.99
2018-09-30T00:50:00.341Z,99.99
2018-09-30T00:51:00.326Z,99.99
2018-09-30T00:52:00.303Z,99.99
2018-09-30T00:53:00.278Z,99.99
2018-09-30T00:54:00.252Z,99.99
2018-09-30T00:55:00.223Z,99.99
2018-09-30T00:56:00.203Z,99.99
2018-09-30T00:57:00.181Z,99.99
2018-09-30T00:58:00.156Z,99.99
2018-09-30T00:59:00.135Z,99.99
2018-09-30T01:00:00.106Z,99.99
2018-09-30T01:01:00.085Z,99.99
2018-09-30T01:02:00.066Z,99.99
2018-09-30T01:03:00.042Z,99.99
2018-09-30T01:04:00.013Z,99.99
2018-09-30T01:04:59.987Z,99.99
2018-09-30T01:05:59.964Z,99.99
2018-09-30T01:06:59.942Z,99.99
2018-09-30T01:07:59.922Z,99.99
2018-09-30T01:08:59.894Z,99.99
2018-09-30T01:09:59.883Z,99.99
2018-09-30T01:10:59.849Z,99.99
2018-09-30T01:11:59.829Z,99.99
2018-09-30T01:12:59.801Z,99.99
2018-09-30T01:13:59.781Z,99.99
2018-09-30T01:14:59.752Z,99.99
2018-09-30T01:15:59.727Z,99.99
2018-09-30T01:16:59.715Z,99.99
2018-09-30T01:17:59.684Z,99.99
2018-09-30T01:18:59.656Z,99.99
2018-09-30T01:19:59.633Z,99.99
2018-09-30T01:20:59.611Z,99.99
2018-09-30T01:21:59.592Z,99.99
2018-09-30T01:22:59.563Z,99.99
2018-09-30T01:23:59.551Z,99.99
2018-09-30T01:24:59.515Z,99.99
2018-09-30T01:25:59.499Z,99.99
2018-09-30T01:26:59.477Z,99.99
2018-09-30T01:27:59.447Z,99.99
2018-09-30T01:29:00.074Z,99.99
2018-09-30T01:29:59.400Z,99.99
2018-09-30T01:30:59.381Z,99.99
2018-09-30T01:31:59.358Z,99.99
2018-09-30T01:32:59.333Z,99.99
2018-09-30T01:33:59.304Z,99.99
2018-09-30T01:34:59.287Z,99.99
2018-09-30T01:35:59.259Z,99.99
2018-09-30T01:36:59.243Z,99.99
2018-09-30T01:37:59.211Z,99.99
2018-09-30T01:38:59.193Z,99.99
2018-09-30T01:39:59.164Z,99.99
2018-09-30T01:40:59.139Z,99.99
2018-09-30T01:41:59.122Z,99.99
2018-09-30T01:42:59.094Z,99.99
2018-09-30T01:43:59.075Z,99.99
2018-09-30T01:44:59.043Z,99.99
2018-09-30T01:45:59.023Z,99.99
2018-09-30T01:46:59.005Z,99.99
2018-09-30T01:47:58.976Z,99.99
2018-09-30T01:48:58.954Z,99.99
2018-09-30T01:49:58.933Z,99.99
2018-09-30T01:50:58.910Z,99.99
2018-09-30T01:51:58.881Z,99.99
2018-09-30T01:52:58.857Z,99.99
2018-09-30T01:53:58.834Z,99.99
2018-09-30T01:54:58.807Z,99.99
2018-09-30T01:55:58.787Z,99.99
2018-09-30T01:56:58.763Z,99.99
2018-09-30T01:57:58.737Z,99.99
2018-09-30T01:58:58.714Z,99.99
2018-09-30T01:59:58.689Z,99.99
2018-09-30T02:00:58.666Z,99.99
2018-09-30T02:01:58.641Z,99.99
2018-09-30T02:02:58.619Z,99.99
2018-09-30T02:03:58.596Z,99.99
2018-09-30T02:04:58.571Z,99.99
2018-09-30T02:05:58.548Z,99.99
2018-09-30T02:06:58.523Z,99.99
2018-09-30T02:07:58.507Z,99.99
2018-09-30T02:08:58.485Z,99.99
2018-09-30T02:09:58.453Z,99.99
2018-09-30T02:10:58.434Z,99.99
2018-09-30T02:11:58.411Z,99.99
2018-09-30T02:12:58.386Z,99.99
2018-09-30T02:13:58.358Z,99.99
2018-09-30T02:14:58.343Z,99.99
2018-09-30T02:15:58.313Z,99.99
2018-09-30T02:16:58.295Z,99.99
2018-09-30T02:17:58.265Z,99.99
2018-09-30T02:18:58.240Z,99.99
2018-09-30T02:19:58.218Z,99.99
2018-09-30T02:20:58.201Z,99.99
2018-09-30T02:21:58.169Z,99.99
2018-09-30T02:22:58.148Z,99.99
2018-09-30T02:23:58.129Z,99.99
2018-09-30T02:24:58.109Z,99.99
2018-09-30T02:25:58.077Z,99.99
2018-09-30T02:26:58.059Z,99.99
2018-09-30T02:27:58.027Z,99.99
2018-09-30T02:28:58.007Z,99.99
2018-09-30T02:29:57.984Z,99.99
2018-09-30T02:30:57.957Z,99.99
2018-09-30T02:31:57.939Z,99.99
2018-09-30T02:32:57.910Z,99.99
2018-09-30T02:33:57.885Z,99.99
2018-09-30T02:34:57.862Z,99.99
2018-09-30T02:35:57.843Z,99.99
2018-09-30T02:36:57.821Z,99.99
2018-09-30T02:37:57.788Z,99.99
2018-09-30T02:38:57.768Z,99.99
2018-09-30T02:39:57.745Z,99.99
2018-09-30T02:40:57.719Z,99.99
2018-09-30T02:41:57.697Z,99.99
2018-09-30T02:42:57.671Z,99.99
2018-09-30T02:43:57.649Z,99.99
2018-09-30T02:44:57.627Z,99.99
2018-09-30T02:45:57.601Z,99.99
2018-09-30T02:46:57.579Z,99.99
2018-09-30T02:47:57.558Z,99.99
2018-09-30T02:48:57.537Z,99.99
2018-09-30T02:49:57.511Z,99.99
2018-09-30T02:50:57.485Z,99.99
2018-09-30T02:51:57.459Z,99.99
2018-09-30T02:52:57.441Z,99.99
2018-09-30T02:53:57.412Z,99.99
2018-09-30T02:54:57.392Z,99.99
2018-09-30T02:55:57.366Z,99.99
2018-09-30T02:56:57.347Z,99.99
2018-09-30T02:57:57.315Z,99.99
2018-09-30T02:58:57.293Z,99.99
2018-09-30T02:59:57.277Z,99.99
2018-09-30T03:00:57.251Z,99.99
2018-09-30T03:01:57.229Z,99.99
2018-09-30T03:02:57.197Z,99.99
2018-09-30T03:03:57.174Z,99.99
2018-09-30T03:04:57.152Z,99.99
2018-09-30T03:05:57.132Z,99.99
2018-09-30T03:06:57.106Z,99.99
2018-09-30T03:07:57.077Z,99.99
2018-09-30T03:08:57.055Z,99.99
2018-09-30T03:09:57.029Z,99.99
2018-09-30T03:10:57.007Z,99.99
2018-09-30T03:11:56.981Z,99.99
2018-09-30T03:12:56.965Z,99.99
2018-09-30T03:13:56.938Z,99.99
2018-09-30T03:14:56.914Z,99.99
2018-09-30T03:15:56.891Z,99.99
2018-09-30T03:16:56.872Z,99.99
2018-09-30T03:17:56.841Z,99.99
2018-09-30T03:18:56.821Z,99.99
2018-09-30T03:19:56.793Z,99.99
2018-09-30T03:20:56.772Z,99.99
2018-09-30T03:21:56.742Z,99.99
2018-09-30T03:22:56.723Z,99.99
2018-09-30T03:23:56.704Z,99.99
2018-09-30T03:24:56.672Z,99.99
2018-09-30T03:25:56.663Z,99.99
2018-09-30T03:26:56.624Z,99.99
2018-09-30T03:27:56.609Z,99.99
2018-09-30T03:28:56.576Z,99.99
2018-09-30T03:29:56.562Z,99.99
2018-09-30T03:30:56.536Z,99.99
2018-09-30T03:31:56.506Z,99.99
2018-09-30T03:32:56.490Z,99.99
2018-09-30T03:33:56.465Z,99.99
2018-09-30T03:34:56.443Z,99.99
2018-09-30T03:35:56.411Z,99.99
2018-09-30T03:36:56.385Z,99.99
2018-09-30T03:37:56.369Z,99.99
2018-09-30T03:38:56.340Z,99.99
2018-09-30T03:39:56.318Z,99.99
2018-09-30T03:40:56.299Z,99.99
2018-09-30T03:41:56.267Z,99.99
2018-09-30T03:42:56.242Z,99.99
2018-09-30T03:43:56.219Z,99.99
2018-09-30T03:44:56.203Z,99.99
2018-09-30T03:45:56.177Z,99.99
2018-09-30T03:46:56.155Z,99.99
2018-09-30T03:47:56.123Z,99.99
2018-09-30T03:48:56.106Z,99.99
2018-09-30T03:49:56.087Z,99.99
2018-09-30T03:50:56.052Z,99.99
2018-09-30T03:51:56.035Z,99.99
2018-09-30T03:52:56.005Z,99.99
2018-09-30T03:53:55.985Z,99.99
2018-09-30T03:54:55.955Z,99.99
2018-09-30T03:55:55.932Z,99.99
2018-09-30T03:56:55.924Z,99.99
2018-09-30T03:57:55.884Z,99.99
2018-09-30T03:58:55.859Z,99.99
2018-09-30T03:59:55.845Z,99.99
2018-09-30T04:00:55.811Z,99.99
2018-09-30T04:01:55.812Z,99.99
2018-09-30T04:02:55.768Z,99.99
2018-09-30T04:03:55.745Z,99.99
2018-09-30T04:04:55.724Z,99.99
2018-09-30T04:05:55.704Z,99.99
2018-09-30T04:06:55.671Z,99.99
2018-09-30T04:07:55.652Z,99.99
2018-09-30T04:08:55.631Z,99.99
2018-09-30T04:09:55.616Z,99.99
2018-09-30T04:10:55.578Z,99.99
2018-09-30T04:11:55.550Z,99.99
2018-09-30T04:12:55.542Z,99.99
2018-09-30T04:13:55.501Z,99.99
2018-09-30T04:14:55.485Z,99.99
2018-09-30T04:15:55.452Z,99.99
2018-09-30T04:16:55.456Z,99.99
2018-09-30T04:17:55.414Z,99.99
2018-09-30T04:18:55.384Z,99.99
2018-09-30T04:19:55.357Z,99.99
2018-09-30T04:20:55.336Z,99.99
2018-09-30T04:21:55.316Z,99.99
2018-09-30T04:22:55.295Z,99.99
2018-09-30T04:23:55.265Z,99.99
2018-09-30T04:24:55.254Z,99.99
2018-09-30T04:25:55.218Z,99.99
2018-09-30T04:26:55.192Z,99.99
2018-09-30T04:27:55.169Z,99.99
2018-09-30T04:28:55.143Z,99.99
2018-09-30T04:29:55.127Z,99.99
2018-09-30T04:30:55.094Z,99.99
2018-09-30T04:31:55.072Z,99.99
2018-09-30T04:32:55.050Z,99.99
2018-09-30T04:33:55.025Z,99.99
2018-09-30T04:34:55.007Z,99.99
2018-09-30T04:35:54.978Z,99.99
2018-09-30T04:36:54.953Z,99.99
2018-09-30T04:37:54.929Z,99.99
2018-09-30T04:38:54.906Z,99.99
2018-09-30T04:39:54.883Z,99.99
2018-09-30T04:40:54.864Z,99.99
2018-09-30T04:41:54.834Z,99.99
2018-09-30T04:42:54.809Z,99.99
2018-09-30T04:43:54.786Z,99.99
2018-09-30T04:44:54.764Z,99.99
2018-09-30T04:45:54.744Z,99.99
2018-09-30T04:46:54.722Z,99.99
2018-09-30T04:47:54.697Z,99.99
2018-09-30T04:48:54.668Z,99.99
2018-09-30T04:49:54.657Z,99.99
2018-09-30T04:50:54.620Z,99.99
2018-09-30T04:51:54.598Z,99.99
2018-09-30T04:52:54.575Z,99.99
2018-09-30T04:53:54.550Z,99.99
2018-09-30T04:54:54.524Z,99.99
2018-09-30T04:55:54.501Z,99.99
2018-09-30T04:56:54.479Z,99.99
2018-09-30T04:57:54.477Z,99.99
2018-09-30T04:58:54.431Z,99.99
2018-09-30T04:59:54.412Z,99.99
2018-09-30T05:00:54.386Z,99.99
2018-09-30T05:01:54.359Z,99.99
2018-09-30T05:02:54.344Z,99.99
2018-09-30T05:03:54.312Z,99.99
2018-09-30T05:04:54.298Z,99.99
2018-09-30T05:05:54.325Z,99.99
2018-09-30T05:06:54.240Z,99.99
2018-09-30T05:07:54.221Z,99.99
2018-09-30T05:08:54.199Z,99.99
2018-09-30T05:09:54.176Z,99.99
2018-09-30T05:10:54.150Z,99.99
2018-09-30T05:11:54.123Z,99.99
2018-09-30T05:12:54.107Z,99.99
2018-09-30T05:13:54.075Z,99.99
2018-09-30T05:14:54.056Z,99.99
2018-09-30T05:15:54.069Z,99.99
2018-09-30T05:16:54.005Z,99.99
2018-09-30T05:17:53.986Z,99.99
2018-09-30T05:18:53.956Z,99.99
2018-09-30T05:19:53.938Z,99.99
2018-09-30T05:20:53.909Z,99.99
2018-09-30T05:21:53.886Z,99.99
2018-09-30T05:22:53.868Z,99.99
2018-09-30T05:23:53.842Z,99.99
2018-09-30T05:24:53.813Z,99.99
2018-09-30T05:25:53.794Z,99.99
2018-09-30T05:26:53.768Z,99.99
2018-09-30T05:27:53.743Z,99.99
2018-09-30T05:28:53.724Z,99.99
2018-09-30T05:29:53.701Z,99.99
2018-09-30T05:30:53.672Z,99.99
2018-09-30T05:31:53.650Z,99.99
2018-09-30T05:32:53.634Z,99.99
2018-09-30T05:33:53.607Z,99.99
2018-09-30T05:34:53.583Z,99.99
2018-09-30T05:35:53.562Z,99.99
2018-09-30T05:36:53.533Z,99.99
2018-09-30T05:37:53.514Z,99.99
2018-09-30T05:38:53.492Z,99.99
2018-09-30T05:39:53.465Z,99.99
2018-09-30T05:40:53.447Z,99.99
2018-09-30T05:41:53.418Z,99.99
2018-09-30T05:42:53.392Z,99.99
2018-09-30T05:43:53.370Z,99.99
2018-09-30T05:44:53.346Z,99.99
2018-09-30T05:45:53.329Z,99.99
2018-09-30T05:46:53.301Z,99.99
2018-09-30T05:47:53.302Z,99.99
2018-09-30T05:48:53.256Z,99.99
2018-09-30T05:49:53.230Z,99.99
2018-09-30T05:50:53.208Z,99.99
2018-09-30T05:51:53.188Z,99.99
2018-09-30T05:52:53.161Z,99.99
2018-09-30T05:53:53.140Z,99.99
2018-09-30T05:54:53.120Z,99.99
2018-09-30T05:55:53.098Z,99.99
2018-09-30T05:56:53.075Z,99.99
2018-09-30T05:57:53.074Z,99.99
2018-09-30T05:58:53.031Z,99.99
2018-09-30T05:59:53.006Z,99.99
2018-09-30T06:00:52.983Z,99.99
2018-09-30T06:01:52.955Z,99.99
2018-09-30T06:02:52.931Z,99.99
2018-09-30T06:03:52.943Z,99.99
2018-09-30T06:04:52.891Z,99.99
2018-09-30T06:05:52.866Z,99.99
2018-09-30T06:06:52.853Z,99.99
2018-09-30T06:07:52.820Z,99.99
2018-09-30T06:08:52.802Z,99.99
2018-09-30T06:09:52.769Z,99.99
2018-09-30T06:10:52.746Z,99.99
2018-09-30T06:11:52.737Z,99.99
2018-09-30T06:12:52.704Z,99.99
2018-09-30T06:13:52.764Z,99.99
2018-09-30T06:14:52.654Z,99.99
2018-09-30T06:15:52.708Z,99.99
2018-09-30T06:16:52.609Z,99.99
2018-09-30T06:17:52.585Z,99.99
2018-09-30T06:18:52.568Z,99.99
2018-09-30T06:19:52.544Z,99.99
2018-09-30T06:20:52.521Z,99.99
2018-09-30T06:21:52.490Z,99.99
2018-09-30T06:22:52.470Z,99.99
2018-09-30T06:23:52.453Z,99.99
2018-09-30T06:24:52.423Z,99.99
2018-09-30T06:25:52.397Z,99.99
2018-09-30T06:26:52.381Z,99.99
2018-09-30T06:27:52.358Z,99.99
2018-09-30T06:28:52.329Z,99.99
2018-09-30T06:29:52.307Z,99.99
2018-09-30T06:30:52.291Z,99.99
2018-09-30T06:31:52.276Z,99.99
2018-09-30T06:32:52.243Z,99.99
2018-09-30T06:33:52.221Z,99.99
2018-09-30T06:34:52.192Z,99.99
2018-09-30T06:35:52.172Z,99.99
2018-09-30T06:36:52.150Z,99.99
2018-09-30T06:37:52.122Z,99.99
2018-09-30T06:38:52.106Z,99.99
2018-09-30T06:39:52.086Z,99.99
2018-09-30T06:40:52.060Z,99.99
2018-09-30T06:41:52.028Z,99.99
2018-09-30T06:42:52.006Z,99.99
2018-09-30T06:43:51.987Z,99.99
2018-09-30T06:44:52.005Z,99.99
2018-09-30T06:45:51.940Z,99.99
2018-09-30T06:46:51.915Z,99.99
2018-09-30T06:47:51.892Z,99.99
2018-09-30T06:48:51.873Z,99.99
2018-09-30T06:49:51.850Z,99.99
2018-09-30T06:50:51.884Z,99.99
2018-09-30T06:51:51.812Z,99.99
2018-09-30T06:52:51.780Z,99.99
2018-09-30T06:53:51.762Z,99.99
2018-09-30T06:54:51.733Z,99.99
2018-09-30T06:55:51.712Z,99.99
2018-09-30T06:56:52.618Z,99.99
2018-09-30T06:57:51.660Z,99.99
2018-09-30T06:58:51.653Z,99.99
2018-09-30T06:59:51.615Z,99.99
2018-09-30T07:00:51.599Z,99.99
2018-09-30T07:01:51.570Z,99.99
2018-09-30T07:02:51.554Z,99.99
2018-09-30T07:03:51.529Z,99.99
2018-09-30T07:04:51.555Z,99.99
2018-09-30T07:05:51.477Z,99.99
2018-09-30T07:06:51.463Z,99.99
2018-09-30T07:07:51.432Z,99.99
2018-09-30T07:08:51.413Z,99.99
2018-09-30T07:09:51.389Z,99.99
2018-09-30T07:10:51.452Z,99.99
2018-09-30T07:11:51.343Z,99.99
2018-09-30T07:12:51.321Z,99.99
2018-09-30T07:13:51.302Z,99.99
2018-09-30T07:14:51.279Z,99.99
2018-09-30T07:15:51.253Z,99.99
2018-09-30T07:16:51.303Z,99.99
2018-09-30T07:17:51.212Z,99.99
2018-09-30T07:18:51.187Z,99.99
2018-09-30T07:19:51.166Z,99.99
2018-09-30T07:20:51.147Z,99.99
2018-09-30T07:21:51.120Z,99.99
2018-09-30T07:22:51.173Z,99.99
2018-09-30T07:23:51.079Z,99.99
2018-09-30T07:24:51.050Z,99.99
2018-09-30T07:25:51.034Z,99.99
2018-09-30T07:26:51.015Z,99.99
2018-09-30T07:27:50.983Z,99.99
2018-09-30T07:28:50.971Z,99.99
2018-09-30T07:29:50.945Z,99.99
2018-09-30T07:30:50.918Z,99.99
2018-09-30T07:31:50.895Z,99.99
2018-09-30T07:32:50.881Z,96.03
2018-09-30T07:33:50.951Z,92.36
2018-09-30T07:34:50.831Z,88.50
2018-09-30T07:35:50.817Z,88.30
2018-09-30T07:36:50.792Z,86.05
2018-09-30T07:37:50.768Z,83.42
2018-09-30T07:38:50.746Z,81.79
2018-09-30T07:39:50.730Z,78.87
2018-09-30T07:40:50.702Z,78.78
2018-09-30T07:41:50.682Z,79.44
2018-09-30T07:42:50.660Z,76.71
2018-09-30T07:43:50.638Z,73.84
2018-09-30T07:44:50.619Z,72.69
2018-09-30T07:45:50.606Z,72.41
2018-09-30T07:46:50.666Z,72.88
2018-09-30T07:47:50.574Z,70.72
2018-09-30T07:48:50.540Z,72.00
2018-09-30T07:49:50.517Z,71.33
2018-09-30T07:50:50.504Z,70.60
2018-09-30T07:51:50.483Z,67.72
2018-09-30T07:52:50.466Z,70.54
2018-09-30T07:53:50.450Z,66.99
2018-09-30T07:54:50.424Z,65.42
2018-09-30T07:55:50.405Z,64.98
2018-09-30T07:56:50.388Z,65.36
2018-09-30T07:57:50.374Z,63.38
2018-09-30T07:58:50.351Z,62.55
2018-09-30T07:59:50.332Z,62.65
2018-09-30T08:00:50.321Z,62.42
2018-09-30T08:01:50.298Z,63.32
2018-09-30T08:02:50.286Z,60.15
2018-09-30T08:03:50.267Z,61.02
2018-09-30T08:04:50.255Z,63.83
2018-09-30T08:05:50.226Z,60.57
2018-09-30T08:06:50.213Z,61.36
2018-09-30T08:07:50.196Z,60.05
2018-09-30T08:08:50.178Z,59.25
2018-09-30T08:09:50.168Z,60.72
2018-09-30T08:10:50.151Z,59.41
2018-09-30T08:11:50.135Z,57.10
2018-09-30T08:12:50.118Z,56.14
2018-09-30T08:13:50.103Z,57.20
2018-09-30T08:14:50.084Z,56.93
2018-09-30T08:15:50.069Z,55.40
2018-09-30T08:16:50.096Z,55.27
2018-09-30T08:17:50.040Z,57.58
2018-09-30T08:18:50.028Z,60.66
2018-09-30T08:19:50.004Z,57.90
2018-09-30T08:20:49.991Z,56.07
2018-09-30T08:21:49.981Z,56.07
2018-09-30T08:22:49.963Z,54.63
2018-09-30T08:23:49.952Z,55.81
2018-09-30T08:24:49.946Z,55.33
2018-09-30T08:25:49.921Z,53.86
2018-09-30T08:26:49.901Z,53.78
2018-09-30T08:27:49.895Z,54.56
2018-09-30T08:28:49.882Z,56.70
2018-09-30T08:29:49.863Z,56.80
2018-09-30T08:30:49.969Z,53.69
2018-09-30T08:31:49.834Z,55.81
2018-09-30T08:32:49.828Z,54.75
2018-09-30T08:33:49.813Z,53.38
2018-09-30T08:34:49.795Z,55.78
2018-09-30T08:35:49.786Z,56.36
2018-09-30T08:36:49.766Z,54.56
2018-09-30T08:37:49.757Z,52.89
2018-09-30T08:38:49.744Z,53.19
2018-09-30T08:39:49.839Z,53.98
2018-09-30T08:40:49.716Z,53.88
2018-09-30T08:41:49.709Z,52.54
2018-09-30T08:42:49.685Z,52.83
2018-09-30T08:43:49.735Z,53.69
2018-09-30T08:44:49.691Z,54.39
2018-09-30T08:45:49.702Z,51.96
2018-09-30T08:46:49.655Z,51.67
2018-09-30T08:47:49.694Z,53.33
2018-09-30T08:48:49.607Z,51.14
2018-09-30T08:49:49.594Z,51.53
2018-09-30T08:50:49.582Z,52.59
2018-09-30T08:51:49.564Z,50.93
2018-09-30T08:52:49.557Z,51.29
2018-09-30T08:53:49.614Z,52.15
2018-09-30T08:54:49.526Z,53.33
2018-09-30T08:55:49.520Z,51.67
2018-09-30T08:56:49.561Z,51.89
2018-09-30T08:57:49.487Z,52.92
2018-09-30T08:58:49.485Z,52.15
2018-09-30T08:59:49.462Z,51.96
2018-09-30T09:00:49.452Z,52.54
2018-09-30T09:01:49.432Z,52.34
2018-09-30T09:02:49.420Z,55.16
2018-09-30T09:03:49.414Z,53.81
2018-09-30T09:04:49.402Z,51.34
2018-09-30T09:05:49.382Z,50.37
2018-09-30T09:06:49.369Z,51.84
2018-09-30T09:07:49.368Z,49.99
2018-09-30T09:08:49.355Z,50.57
2018-09-30T09:09:49.378Z,50.27
2018-09-30T09:10:49.319Z,53.94
2018-09-30T09:11:49.306Z,52.91
2018-09-30T09:12:49.314Z,52.01
2018-09-30T09:13:49.280Z,51.92
2018-09-30T09:14:49.277Z,52.08
2018-09-30T09:15:49.258Z,53.07
2018-09-30T09:16:49.249Z,51.60
2018-09-30T09:17:49.232Z,50.76
2018-09-30T09:18:49.216Z,49.89
2018-09-30T09:19:49.210Z,49.15
2018-09-30T09:20:49.199Z,50.62
2018-09-30T09:21:49.193Z,47.27
2018-09-30T09:22:49.248Z,46.13
2018-09-30T09:23:49.152Z,47.67
2018-09-30T09:24:49.143Z,48.44
2018-09-30T09:25:49.133Z,45.43
2018-09-30T09:26:49.120Z,48.40
2018-09-30T09:27:49.104Z,47.22
2018-09-30T09:28:49.102Z,48.66
2018-09-30T09:29:49.083Z,46.83
2018-09-30T09:30:49.070Z,45.51
2018-09-30T09:31:49.123Z,46.88
2018-09-30T09:32:49.061Z,46.11
2018-09-30T09:33:49.035Z,48.35
2018-09-30T09:34:49.025Z,44.95
2018-09-30T09:35:49.014Z,45.53
2018-09-30T09:36:49.012Z,47.75
2018-09-30T09:37:48.992Z,46.33
2018-09-30T09:38:48.983Z,44.97
2018-09-30T09:39:48.964Z,46.33
2018-09-30T09:40:48.955Z,47.48
2018-09-30T09:41:48.948Z,44.78
2018-09-30T09:42:48.935Z,46.42
2018-09-30T09:43:48.922Z,43.81
2018-09-30T09:44:48.916Z,43.72
2018-09-30T09:45:48.903Z,43.81
2018-09-30T09:46:48.898Z,43.81
2018-09-30T09:47:48.881Z,44.29
2018-09-30T09:48:48.874Z,44.97
2018-09-30T09:49:48.852Z,44.39
2018-09-30T09:50:48.852Z,46.13
2018-09-30T09:51:48.833Z,48.47
2018-09-30T09:52:48.823Z,45.69
2018-09-30T09:53:48.814Z,47.48
2018-09-30T09:54:48.804Z,46.23
2018-09-30T09:55:48.794Z,47.17
2018-09-30T09:56:48.788Z,48.44
2018-09-30T09:57:48.778Z,47.89
2018-09-30T09:58:48.805Z,45.48
2018-09-30T09:59:48.748Z,45.28
2018-09-30T10:00:48.744Z,45.48
2018-09-30T10:01:48.729Z,45.55
2018-09-30T10:02:48.721Z,48.95
2018-09-30T10:03:48.713Z,46.15
2018-09-30T10:04:48.694Z,47.80
2018-09-30T10:05:48.692Z,50.11
2018-09-30T10:06:48.687Z,45.59
2018-09-30T10:07:48.674Z,44.73
2018-09-30T10:08:48.658Z,47.63
2018-09-30T10:09:48.699Z,44.90
2018-09-30T10:10:48.655Z,46.81
2018-09-30T10:11:48.639Z,47.65
2018-09-30T10:12:48.626Z,48.33
2018-09-30T10:13:48.617Z,47.07
2018-09-30T10:14:48.607Z,47.65
2018-09-30T10:15:48.601Z,46.86
2018-09-30T10:16:48.594Z,48.28
2018-09-30T10:17:48.585Z,47.87
2018-09-30T10:18:48.575Z,49.68
2018-09-30T10:19:48.569Z,51.62
2018-09-30T10:20:48.553Z,51.72
2018-09-30T10:21:48.553Z,51.34
2018-09-30T10:22:48.537Z,49.32
2018-09-30T10:23:48.538Z,53.67
2018-09-30T10:24:48.528Z,49.24
2018-09-30T10:25:48.515Z,46.95
2018-09-30T10:26:48.505Z,46.18
2018-09-30T10:27:48.498Z,48.59
2018-09-30T10:28:48.489Z,49.73
2018-09-30T10:29:48.487Z,52.91
2018-09-30T10:30:48.476Z,51.97
2018-09-30T10:31:48.474Z,55.27
2018-09-30T10:32:48.457Z,51.61
2018-09-30T10:33:48.448Z,47.82
2018-09-30T10:34:48.445Z,50.74
2018-09-30T10:35:48.442Z,49.48
2018-09-30T10:36:48.428Z,48.42
2018-09-30T10:37:48.422Z,48.52
2018-09-30T10:38:48.483Z,45.62
2018-09-30T10:39:48.413Z,49.58
2018-09-30T10:40:48.403Z,48.23
2018-09-30T10:41:48.387Z,48.81
2018-09-30T10:42:48.384Z,48.88
2018-09-30T10:43:48.380Z,49.60
2018-09-30T10:44:48.370Z,49.99
2018-09-30T10:45:48.360Z,49.79
2018-09-30T10:46:48.354Z,50.15
2018-09-30T10:47:48.347Z,51.72
2018-09-30T10:48:48.346Z,50.69
2018-09-30T10:49:48.341Z,49.53
2018-09-30T10:50:48.335Z,48.76
2018-09-30T10:51:48.330Z,50.23
2018-09-30T10:52:48.322Z,50.32
2018-09-30T10:53:48.316Z,48.97
2018-09-30T10:54:48.306Z,51.70
2018-09-30T10:55:48.299Z,49.90
2018-09-30T10:56:48.353Z,50.76
2018-09-30T10:57:48.288Z,50.86
2018-09-30T10:58:48.281Z,49.32
2018-09-30T10:59:48.277Z,52.21
2018-09-30T11:00:48.264Z,48.66
2018-09-30T11:01:48.266Z,45.45
2018-09-30T11:02:48.251Z,44.68
2018-09-30T11:03:48.245Z,46.30
2018-09-30T11:04:48.247Z,48.74
2018-09-30T11:05:48.229Z,48.54
2018-09-30T11:06:48.232Z,46.54
2018-09-30T11:07:48.226Z,48.66
2018-09-30T11:08:48.223Z,45.76
2018-09-30T11:09:48.297Z,47.67
2018-09-30T11:10:48.212Z,48.03
2018-09-30T11:11:48.200Z,49.84
2018-09-30T11:12:48.200Z,48.76
2018-09-30T11:13:48.197Z,48.08
2018-09-30T11:14:48.191Z,49.89
2018-09-30T11:15:48.190Z,51.92
2018-09-30T11:16:48.181Z,51.14
2018-09-30T11:17:48.171Z,52.01
2018-09-30T11:18:48.167Z,56.27
2018-09-30T11:19:48.163Z,50.49
2018-09-30T11:20:48.160Z,49.55
2018-09-30T11:21:48.157Z,51.97
2018-09-30T11:22:48.146Z,50.45
2018-09-30T11:23:48.141Z,48.40
2018-09-30T11:24:48.141Z,50.42
2018-09-30T11:25:48.131Z,48.97
2018-09-30T11:26:48.128Z,48.66
2018-09-30T11:27:48.119Z,50.21
2018-09-30T11:28:48.118Z,51.82
2018-09-30T11:29:48.112Z,51.02
2018-09-30T11:30:48.105Z,54.71
2018-09-30T11:31:48.180Z,51.60
2018-09-30T11:32:48.097Z,52.97
2018-09-30T11:33:48.090Z,53.55
2018-09-30T11:34:48.087Z,53.87
2018-09-30T11:35:48.083Z,51.68
2018-09-30T11:36:48.087Z,52.16
2018-09-30T11:37:48.071Z,50.98
2018-09-30T11:38:48.071Z,51.97
2018-09-30T11:39:48.065Z,51.58
2018-09-30T11:40:48.068Z,51.80
2018-09-30T11:41:48.058Z,50.26
2018-09-30T11:42:48.096Z,49.37
2018-09-30T11:43:48.046Z,50.71
2018-09-30T11:44:48.046Z,49.27
2018-09-30T11:45:48.036Z,50.32
2018-09-30T11:46:48.037Z,49.84
2018-09-30T11:47:48.036Z,47.03
2018-09-30T11:48:48.030Z,46.95
2018-09-30T11:49:48.023Z,49.84
2018-09-30T11:50:48.023Z,52.25
2018-09-30T11:51:48.014Z,51.70
2018-09-30T11:52:48.064Z,53.47
2018-09-30T11:53:48.007Z,49.00
2018-09-30T11:54:48.008Z,48.57
2018-09-30T11:55:47.995Z,49.79
2018-09-30T11:56:47.995Z,53.67
2018-09-30T11:57:47.988Z,53.99
2018-09-30T11:58:47.990Z,54.11
2018-09-30T11:59:47.978Z,52.57
2018-09-30T12:00:47.975Z,55.30
2018-09-30T12:01:47.971Z,56.16
2018-09-30T12:02:47.975Z,50.18
2018-09-30T12:03:47.968Z,50.28
2018-09-30T12:04:47.964Z,50.04
2018-09-30T12:05:47.955Z,51.77
2018-09-30T12:06:47.959Z,52.11
2018-09-30T12:07:47.955Z,53.00
2018-09-30T12:08:47.951Z,52.61
2018-09-30T12:09:47.942Z,51.94
2018-09-30T12:10:47.938Z,52.91
2018-09-30T12:11:47.932Z,54.54
2018-09-30T12:12:47.929Z,53.77
2018-09-30T12:13:47.929Z,52.87
2018-09-30T12:14:47.920Z,53.67
2018-09-30T12:15:47.916Z,53.00
2018-09-30T12:16:47.913Z,51.65
2018-09-30T12:17:47.913Z,55.41
2018-09-30T12:18:48.012Z,52.81
2018-09-30T12:19:47.906Z,51.68
2018-09-30T12:20:47.897Z,54.09
2018-09-30T12:21:47.894Z,53.51
2018-09-30T12:22:47.896Z,52.06
2018-09-30T12:23:47.884Z,51.39
2018-09-30T12:24:47.887Z,50.62
2018-09-30T12:25:47.932Z,49.37
2018-09-30T12:26:47.875Z,51.77
2018-09-30T12:27:47.874Z,53.15
2018-09-30T12:28:47.866Z,49.58
2018-09-30T12:29:47.870Z,49.75
2018-09-30T12:30:47.858Z,49.84
2018-09-30T12:31:47.860Z,48.79
2018-09-30T12:32:47.856Z,50.32
2018-09-30T12:33:47.849Z,50.62
2018-09-30T12:34:47.846Z,49.84
2018-09-30T12:35:47.843Z,52.09
2018-09-30T12:36:47.839Z,51.41
2018-09-30T12:37:47.830Z,49.58
2018-09-30T12:38:47.833Z,50.18
2018-09-30T12:39:47.827Z,52.95
2018-09-30T12:40:47.821Z,51.80
2018-09-30T12:41:47.820Z,51.82
2018-09-30T12:42:47.811Z,49.70
2018-09-30T12:43:47.808Z,53.37
2018-09-30T12:44:47.805Z,56.36
2018-09-30T12:45:47.801Z,52.79
2018-09-30T12:46:47.798Z,51.32
2018-09-30T12:47:47.795Z,52.93
2018-09-30T12:48:47.795Z,54.21
2018-09-30T12:49:47.794Z,52.37
2018-09-30T12:50:47.786Z,53.05
2018-09-30T12:51:47.782Z,53.63